sensor_id;sensor_type;location;lat;lon;timestamp;P1;durP1;ratioP1;P2;durP2;ratioP2
52764;SDS011;38650;44.536;18.664;2022-07-04T00:00:15;6.95;;;5.13;;
52764;SDS011;38650;44.536;18.664;2022-07-04T00:02:42;5.47;;;4.97;;
52764;SDS011;38650;44.536;18.664;2022-07-04T00:05:09;5.28;;;4.78;;
52764;SDS011;38650;44.536;18.664;2022-07-04T00:07:39;4.50;;;4.20;;
52764;SDS011;38650;44.536;18.664;2022-07-04T00:10:06;4.57;;;4.18;;
52764;SDS011;38650;44.536;18.664;2022-07-04T00:12:33;4.63;;;4.22;;
52764;SDS011;38650;44.536;18.664;2022-07-04T00:15:00;5.30;;;4.78;;
52764;SDS011;38650;44.536;18.664;2022-07-04T00:17:26;5.18;;;4.78;;
52764;SDS011;38650;44.536;18.664;2022-07-04T00:19:52;6.30;;;5.22;;
52764;SDS011;38650;44.536;18.664;2022-07-04T00:22:17;5.70;;;5.10;;
52764;SDS011;38650;44.536;18.664;2022-07-04T00:24:43;4.80;;;4.40;;
52764;SDS011;38650;44.536;18.664;2022-07-04T00:27:09;5.10;;;4.68;;
52764;SDS011;38650;44.536;18.664;2022-07-04T00:29:35;5.13;;;4.72;;
52764;SDS011;38650;44.536;18.664;2022-07-04T00:32:01;5.03;;;4.63;;
52764;SDS011;38650;44.536;18.664;2022-07-04T00:34:27;4.72;;;4.10;;
52764;SDS011;38650;44.536;18.664;2022-07-04T00:36:52;4.72;;;4.32;;
52764;SDS011;38650;44.536;18.664;2022-07-04T00:39:19;4.00;;;3.70;;
52764;SDS011;38650;44.536;18.664;2022-07-04T00:41:45;4.25;;;3.92;;
52764;SDS011;38650;44.536;18.664;2022-07-04T00:44:11;8.88;;;6.38;;
52764;SDS011;38650;44.536;18.664;2022-07-04T00:46:38;6.45;;;5.85;;
52764;SDS011;38650;44.536;18.664;2022-07-04T00:49:06;5.85;;;5.30;;
52764;SDS011;38650;44.536;18.664;2022-07-04T00:51:32;7.55;;;6.45;;
52764;SDS011;38650;44.536;18.664;2022-07-04T00:53:58;7.68;;;6.40;;
52764;SDS011;38650;44.536;18.664;2022-07-04T00:56:24;6.53;;;5.90;;
52764;SDS011;38650;44.536;18.664;2022-07-04T00:58:50;5.93;;;5.38;;
52764;SDS011;38650;44.536;18.664;2022-07-04T01:01:18;5.35;;;4.95;;
52764;SDS011;38650;44.536;18.664;2022-07-04T01:03:44;4.65;;;4.30;;
52764;SDS011;38650;44.536;18.664;2022-07-04T01:06:10;5.40;;;4.97;;
52764;SDS011;38650;44.536;18.664;2022-07-04T01:08:40;7.45;;;6.72;;
52764;SDS011;38650;44.536;18.664;2022-07-04T01:11:07;7.35;;;6.50;;
52764;SDS011;38650;44.536;18.664;2022-07-04T01:13:34;7.53;;;6.82;;
52764;SDS011;38650;44.536;18.664;2022-07-04T01:16:00;6.78;;;6.18;;
52764;SDS011;38650;44.536;18.664;2022-07-04T01:18:26;6.82;;;6.22;;
52764;SDS011;38650;44.536;18.664;2022-07-04T01:20:52;7.60;;;6.97;;
52764;SDS011;38650;44.536;18.664;2022-07-04T01:23:17;6.85;;;6.35;;
52764;SDS011;38650;44.536;18.664;2022-07-04T01:25:44;9.00;;;8.07;;
52764;SDS011;38650;44.536;18.664;2022-07-04T01:28:09;10.75;;;8.57;;
52764;SDS011;38650;44.536;18.664;2022-07-04T01:30:36;8.85;;;8.00;;
52764;SDS011;38650;44.536;18.664;2022-07-04T01:33:02;8.38;;;7.57;;
52764;SDS011;38650;44.536;18.664;2022-07-04T01:35:28;7.10;;;6.50;;
52764;SDS011;38650;44.536;18.664;2022-07-04T01:37:54;6.20;;;5.70;;
52764;SDS011;38650;44.536;18.664;2022-07-04T01:40:20;6.35;;;5.85;;
52764;SDS011;38650;44.536;18.664;2022-07-04T01:42:46;5.88;;;5.10;;
52764;SDS011;38650;44.536;18.664;2022-07-04T01:45:12;5.03;;;4.57;;
52764;SDS011;38650;44.536;18.664;2022-07-04T01:47:39;5.28;;;4.88;;
52764;SDS011;38650;44.536;18.664;2022-07-04T01:50:05;4.65;;;4.32;;
52764;SDS011;38650;44.536;18.664;2022-07-04T01:52:33;4.00;;;3.72;;
52764;SDS011;38650;44.536;18.664;2022-07-04T01:54:58;4.82;;;4.07;;
52764;SDS011;38650;44.536;18.664;2022-07-04T01:57:24;4.70;;;4.40;;
52764;SDS011;38650;44.536;18.664;2022-07-04T01:59:50;5.38;;;4.88;;
52764;SDS011;38650;44.536;18.664;2022-07-04T02:02:34;6.05;;;5.55;;
52764;SDS011;38650;44.536;18.664;2022-07-04T02:05:01;5.13;;;4.70;;
52764;SDS011;38650;44.536;18.664;2022-07-04T02:07:27;4.93;;;4.53;;
52764;SDS011;38650;44.536;18.664;2022-07-04T02:09:52;5.32;;;4.80;;
52764;SDS011;38650;44.536;18.664;2022-07-04T02:12:18;4.03;;;3.72;;
52764;SDS011;38650;44.536;18.664;2022-07-04T02:15:22;4.10;;;3.80;;
52764;SDS011;38650;44.536;18.664;2022-07-04T02:17:48;3.80;;;3.50;;
52764;SDS011;38650;44.536;18.664;2022-07-04T02:20:14;4.20;;;3.70;;
52764;SDS011;38650;44.536;18.664;2022-07-04T02:22:39;3.63;;;3.40;;
52764;SDS011;38650;44.536;18.664;2022-07-04T02:25:05;3.55;;;3.28;;
52764;SDS011;38650;44.536;18.664;2022-07-04T02:27:31;3.88;;;3.58;;
52764;SDS011;38650;44.536;18.664;2022-07-04T02:29:57;3.83;;;3.53;;
52764;SDS011;38650;44.536;18.664;2022-07-04T02:32:23;4.20;;;3.90;;
52764;SDS011;38650;44.536;18.664;2022-07-04T02:34:48;3.63;;;3.33;;
52764;SDS011;38650;44.536;18.664;2022-07-04T02:37:14;3.97;;;3.67;;
52764;SDS011;38650;44.536;18.664;2022-07-04T02:39:40;4.20;;;3.85;;
52764;SDS011;38650;44.536;18.664;2022-07-04T02:42:06;4.68;;;4.28;;
52764;SDS011;38650;44.536;18.664;2022-07-04T02:44:31;4.35;;;3.95;;
52764;SDS011;38650;44.536;18.664;2022-07-04T02:46:57;5.00;;;4.60;;
52764;SDS011;38650;44.536;18.664;2022-07-04T02:49:23;4.22;;;3.92;;
52764;SDS011;38650;44.536;18.664;2022-07-04T02:51:49;3.78;;;3.47;;
52764;SDS011;38650;44.536;18.664;2022-07-04T02:54:15;4.68;;;3.70;;
52764;SDS011;38650;44.536;18.664;2022-07-04T02:56:40;4.07;;;3.70;;
52764;SDS011;38650;44.536;18.664;2022-07-04T02:59:07;3.80;;;3.50;;
52764;SDS011;38650;44.536;18.664;2022-07-04T03:01:32;4.03;;;3.72;;
52764;SDS011;38650;44.536;18.664;2022-07-04T03:03:58;4.30;;;3.92;;
52764;SDS011;38650;44.536;18.664;2022-07-04T03:06:24;5.25;;;4.65;;
52764;SDS011;38650;44.536;18.664;2022-07-04T03:08:50;4.88;;;4.47;;
52764;SDS011;38650;44.536;18.664;2022-07-04T03:11:17;4.32;;;4.03;;
52764;SDS011;38650;44.536;18.664;2022-07-04T03:13:43;5.13;;;3.50;;
52764;SDS011;38650;44.536;18.664;2022-07-04T03:16:09;4.20;;;3.90;;
52764;SDS011;38650;44.536;18.664;2022-07-04T03:18:36;3.90;;;3.60;;
52764;SDS011;38650;44.536;18.664;2022-07-04T03:21:02;3.60;;;2.97;;
52764;SDS011;38650;44.536;18.664;2022-07-04T03:23:31;3.13;;;2.92;;
52764;SDS011;38650;44.536;18.664;2022-07-04T03:25:57;3.72;;;3.42;;
52764;SDS011;38650;44.536;18.664;2022-07-04T03:28:23;3.85;;;3.60;;
52764;SDS011;38650;44.536;18.664;2022-07-04T03:30:48;4.00;;;3.70;;
52764;SDS011;38650;44.536;18.664;2022-07-04T03:33:14;4.15;;;3.83;;
52764;SDS011;38650;44.536;18.664;2022-07-04T03:35:40;4.40;;;4.10;;
52764;SDS011;38650;44.536;18.664;2022-07-04T03:38:05;4.00;;;3.70;;
52764;SDS011;38650;44.536;18.664;2022-07-04T03:40:31;4.38;;;3.97;;
52764;SDS011;38650;44.536;18.664;2022-07-04T03:42:58;3.33;;;3.13;;
52764;SDS011;38650;44.536;18.664;2022-07-04T03:45:24;4.28;;;3.80;;
52764;SDS011;38650;44.536;18.664;2022-07-04T03:47:50;3.47;;;2.85;;
52764;SDS011;38650;44.536;18.664;2022-07-04T03:50:16;3.88;;;3.38;;
52764;SDS011;38650;44.536;18.664;2022-07-04T03:52:42;2.90;;;2.70;;
52764;SDS011;38650;44.536;18.664;2022-07-04T03:55:08;3.55;;;3.25;;
52764;SDS011;38650;44.536;18.664;2022-07-04T03:57:34;3.53;;;3.22;;
52764;SDS011;38650;44.536;18.664;2022-07-04T04:00:00;3.33;;;3.13;;
52764;SDS011;38650;44.536;18.664;2022-07-04T04:02:25;3.70;;;3.40;;
52764;SDS011;38650;44.536;18.664;2022-07-04T04:04:51;3.00;;;2.80;;
52764;SDS011;38650;44.536;18.664;2022-07-04T04:07:35;3.47;;;3.17;;
52764;SDS011;38650;44.536;18.664;2022-07-04T04:10:01;3.58;;;3.28;;
52764;SDS011;38650;44.536;18.664;2022-07-04T04:12:26;4.53;;;4.00;;
52764;SDS011;38650;44.536;18.664;2022-07-04T04:14:52;6.43;;;4.72;;
52764;SDS011;38650;44.536;18.664;2022-07-04T04:17:18;5.55;;;5.05;;
52764;SDS011;38650;44.536;18.664;2022-07-04T04:19:44;4.70;;;4.30;;
52764;SDS011;38650;44.536;18.664;2022-07-04T04:22:10;4.63;;;4.15;;
52764;SDS011;38650;44.536;18.664;2022-07-04T04:24:35;4.28;;;3.97;;
52764;SDS011;38650;44.536;18.664;2022-07-04T04:27:01;4.10;;;3.80;;
52764;SDS011;38650;44.536;18.664;2022-07-04T04:29:27;5.13;;;3.83;;
52764;SDS011;38650;44.536;18.664;2022-07-04T04:31:52;4.20;;;3.90;;
52764;SDS011;38650;44.536;18.664;2022-07-04T04:34:18;4.10;;;3.70;;
52764;SDS011;38650;44.536;18.664;2022-07-04T04:36:43;4.38;;;4.07;;
52764;SDS011;38650;44.536;18.664;2022-07-04T04:39:09;5.20;;;4.40;;
52764;SDS011;38650;44.536;18.664;2022-07-04T04:41:35;3.78;;;3.47;;
52764;SDS011;38650;44.536;18.664;2022-07-04T04:44:00;3.67;;;3.38;;
52764;SDS011;38650;44.536;18.664;2022-07-04T04:46:26;3.97;;;3.45;;
52764;SDS011;38650;44.536;18.664;2022-07-04T04:48:52;3.65;;;3.35;;
52764;SDS011;38650;44.536;18.664;2022-07-04T04:51:18;3.17;;;2.92;;
52764;SDS011;38650;44.536;18.664;2022-07-04T04:53:43;3.63;;;3.33;;
52764;SDS011;38650;44.536;18.664;2022-07-04T04:56:09;3.33;;;3.13;;
52764;SDS011;38650;44.536;18.664;2022-07-04T04:58:35;3.60;;;3.40;;
52764;SDS011;38650;44.536;18.664;2022-07-04T05:01:01;4.03;;;3.72;;
52764;SDS011;38650;44.536;18.664;2022-07-04T05:03:27;4.28;;;3.97;;
52764;SDS011;38650;44.536;18.664;2022-07-04T05:05:53;3.80;;;3.50;;
52764;SDS011;38650;44.536;18.664;2022-07-04T05:08:19;3.50;;;3.20;;
52764;SDS011;38650;44.536;18.664;2022-07-04T05:10:45;3.70;;;3.40;;
52764;SDS011;38650;44.536;18.664;2022-07-04T05:13:10;3.78;;;3.47;;
52764;SDS011;38650;44.536;18.664;2022-07-04T05:15:37;5.10;;;4.07;;
52764;SDS011;38650;44.536;18.664;2022-07-04T05:18:02;4.60;;;3.80;;
52764;SDS011;38650;44.536;18.664;2022-07-04T05:20:28;3.80;;;3.50;;
52764;SDS011;38650;44.536;18.664;2022-07-04T05:22:54;3.55;;;3.33;;
52764;SDS011;38650;44.536;18.664;2022-07-04T05:25:19;3.85;;;3.65;;
52764;SDS011;38650;44.536;18.664;2022-07-04T05:27:45;3.50;;;3.20;;
52764;SDS011;38650;44.536;18.664;2022-07-04T05:30:11;3.30;;;3.10;;
52764;SDS011;38650;44.536;18.664;2022-07-04T05:32:40;3.42;;;3.08;;
52764;SDS011;38650;44.536;18.664;2022-07-04T05:35:06;2.67;;;2.47;;
52764;SDS011;38650;44.536;18.664;2022-07-04T05:37:32;3.70;;;3.40;;
52764;SDS011;38650;44.536;18.664;2022-07-04T05:39:58;4.30;;;3.33;;
52764;SDS011;38650;44.536;18.664;2022-07-04T05:42:25;4.20;;;3.80;;
52764;SDS011;38650;44.536;18.664;2022-07-04T05:44:51;5.07;;;4.65;;
52764;SDS011;38650;44.536;18.664;2022-07-04T05:47:16;7.45;;;5.70;;
52764;SDS011;38650;44.536;18.664;2022-07-04T05:49:42;5.72;;;5.25;;
52764;SDS011;38650;44.536;18.664;2022-07-04T05:52:08;9.45;;;5.82;;
52764;SDS011;38650;44.536;18.664;2022-07-04T05:54:33;6.70;;;5.05;;
52764;SDS011;38650;44.536;18.664;2022-07-04T05:56:59;5.20;;;4.80;;
52764;SDS011;38650;44.536;18.664;2022-07-04T05:59:25;4.40;;;4.00;;
52764;SDS011;38650;44.536;18.664;2022-07-04T06:01:51;5.93;;;5.32;;
52764;SDS011;38650;44.536;18.664;2022-07-04T06:04:16;4.60;;;4.15;;
52764;SDS011;38650;44.536;18.664;2022-07-04T06:06:43;4.30;;;3.90;;
52764;SDS011;38650;44.536;18.664;2022-07-04T06:09:08;7.07;;;5.10;;
52764;SDS011;38650;44.536;18.664;2022-07-04T06:11:34;4.45;;;4.10;;
52764;SDS011;38650;44.536;18.664;2022-07-04T06:14:00;4.18;;;3.95;;
52764;SDS011;38650;44.536;18.664;2022-07-04T06:16:25;4.65;;;4.22;;
52764;SDS011;38650;44.536;18.664;2022-07-04T06:18:51;5.40;;;4.90;;
52764;SDS011;38650;44.536;18.664;2022-07-04T06:21:17;4.53;;;4.22;;
52764;SDS011;38650;44.536;18.664;2022-07-04T06:23:43;5.47;;;4.93;;
52764;SDS011;38650;44.536;18.664;2022-07-04T06:26:09;4.60;;;4.20;;
52764;SDS011;38650;44.536;18.664;2022-07-04T06:28:35;4.93;;;4.63;;
52764;SDS011;38650;44.536;18.664;2022-07-04T06:31:01;5.78;;;5.25;;
52764;SDS011;38650;44.536;18.664;2022-07-04T06:33:26;7.00;;;5.43;;
52764;SDS011;38650;44.536;18.664;2022-07-04T06:35:52;6.35;;;5.35;;
52764;SDS011;38650;44.536;18.664;2022-07-04T06:38:21;6.82;;;5.43;;
52764;SDS011;38650;44.536;18.664;2022-07-04T06:40:49;7.20;;;6.60;;
52764;SDS011;38650;44.536;18.664;2022-07-04T06:43:16;7.50;;;6.80;;
52764;SDS011;38650;44.536;18.664;2022-07-04T06:45:42;7.10;;;6.28;;
52764;SDS011;38650;44.536;18.664;2022-07-04T06:48:08;8.13;;;6.32;;
52764;SDS011;38650;44.536;18.664;2022-07-04T06:50:34;6.10;;;5.65;;
52764;SDS011;38650;44.536;18.664;2022-07-04T06:53:00;5.63;;;5.13;;
52764;SDS011;38650;44.536;18.664;2022-07-04T06:55:30;9.07;;;7.30;;
52764;SDS011;38650;44.536;18.664;2022-07-04T06:57:56;6.28;;;5.68;;
52764;SDS011;38650;44.536;18.664;2022-07-04T07:00:22;5.53;;;5.13;;
52764;SDS011;38650;44.536;18.664;2022-07-04T07:02:47;5.75;;;5.25;;
52764;SDS011;38650;44.536;18.664;2022-07-04T07:05:13;5.82;;;5.20;;
52764;SDS011;38650;44.536;18.664;2022-07-04T07:07:39;7.18;;;6.07;;
52764;SDS011;38650;44.536;18.664;2022-07-04T07:10:05;6.20;;;5.70;;
52764;SDS011;38650;44.536;18.664;2022-07-04T07:12:31;6.03;;;5.53;;
52764;SDS011;38650;44.536;18.664;2022-07-04T07:14:58;5.00;;;4.60;;
52764;SDS011;38650;44.536;18.664;2022-07-04T07:17:25;7.05;;;6.43;;
52764;SDS011;38650;44.536;18.664;2022-07-04T07:19:51;6.35;;;5.85;;
52764;SDS011;38650;44.536;18.664;2022-07-04T07:22:17;5.03;;;4.63;;
52764;SDS011;38650;44.536;18.664;2022-07-04T07:24:43;4.88;;;4.55;;
52764;SDS011;38650;44.536;18.664;2022-07-04T07:27:09;4.78;;;4.47;;
52764;SDS011;38650;44.536;18.664;2022-07-04T07:29:35;4.80;;;4.45;;
52764;SDS011;38650;44.536;18.664;2022-07-04T07:32:01;5.03;;;4.63;;
52764;SDS011;38650;44.536;18.664;2022-07-04T07:34:27;4.65;;;4.25;;
52764;SDS011;38650;44.536;18.664;2022-07-04T07:36:53;5.13;;;4.72;;
52764;SDS011;38650;44.536;18.664;2022-07-04T07:39:20;5.47;;;5.03;;
52764;SDS011;38650;44.536;18.664;2022-07-04T07:41:46;4.97;;;4.40;;
52764;SDS011;38650;44.536;18.664;2022-07-04T07:44:11;4.65;;;4.25;;
52764;SDS011;38650;44.536;18.664;2022-07-04T07:46:38;4.05;;;3.67;;
52764;SDS011;38650;44.536;18.664;2022-07-04T07:49:03;4.70;;;4.20;;
52764;SDS011;38650;44.536;18.664;2022-07-04T07:51:29;4.18;;;3.75;;
52764;SDS011;38650;44.536;18.664;2022-07-04T07:53:55;4.25;;;3.90;;
52764;SDS011;38650;44.536;18.664;2022-07-04T07:56:21;5.65;;;3.95;;
52764;SDS011;38650;44.536;18.664;2022-07-04T07:58:47;7.65;;;5.68;;
52764;SDS011;38650;44.536;18.664;2022-07-04T08:01:14;4.93;;;4.63;;
52764;SDS011;38650;44.536;18.664;2022-07-04T08:03:40;4.55;;;4.15;;
52764;SDS011;38650;44.536;18.664;2022-07-04T08:06:24;5.40;;;4.65;;
52764;SDS011;38650;44.536;18.664;2022-07-04T08:08:49;5.40;;;4.22;;
52764;SDS011;38650;44.536;18.664;2022-07-04T08:11:15;4.10;;;3.78;;
52764;SDS011;38650;44.536;18.664;2022-07-04T08:13:41;3.38;;;3.08;;
52764;SDS011;38650;44.536;18.664;2022-07-04T08:16:07;3.25;;;3.05;;
52764;SDS011;38650;44.536;18.664;2022-07-04T08:18:33;4.18;;;3.80;;
52764;SDS011;38650;44.536;18.664;2022-07-04T08:20:59;4.80;;;3.58;;
52764;SDS011;38650;44.536;18.664;2022-07-04T08:23:26;3.67;;;3.38;;
52764;SDS011;38650;44.536;18.664;2022-07-04T08:25:53;4.10;;;3.70;;
52764;SDS011;38650;44.536;18.664;2022-07-04T08:28:19;4.10;;;3.72;;
52764;SDS011;38650;44.536;18.664;2022-07-04T08:30:45;5.18;;;4.68;;
52764;SDS011;38650;44.536;18.664;2022-07-04T08:33:10;9.30;;;5.90;;
52764;SDS011;38650;44.536;18.664;2022-07-04T08:35:36;6.05;;;5.55;;
52764;SDS011;38650;44.536;18.664;2022-07-04T08:38:02;6.50;;;5.90;;
52764;SDS011;38650;44.536;18.664;2022-07-04T08:40:28;6.07;;;5.38;;
52764;SDS011;38650;44.536;18.664;2022-07-04T08:42:55;5.50;;;5.00;;
52764;SDS011;38650;44.536;18.664;2022-07-04T08:45:29;5.22;;;4.82;;
52764;SDS011;38650;44.536;18.664;2022-07-04T08:48:04;5.50;;;4.80;;
52764;SDS011;38650;44.536;18.664;2022-07-04T08:50:39;6.07;;;5.05;;
52764;SDS011;38650;44.536;18.664;2022-07-04T08:53:15;5.47;;;4.47;;
52764;SDS011;38650;44.536;18.664;2022-07-04T08:55:44;4.65;;;4.35;;
52764;SDS011;38650;44.536;18.664;2022-07-04T08:58:29;4.43;;;4.03;;
52764;SDS011;38650;44.536;18.664;2022-07-04T09:01:03;4.00;;;3.70;;
52764;SDS011;38650;44.536;18.664;2022-07-04T09:03:30;3.72;;;3.42;;
52764;SDS011;38650;44.536;18.664;2022-07-04T09:05:57;3.10;;;2.90;;
52764;SDS011;38650;44.536;18.664;2022-07-04T09:08:23;3.00;;;2.80;;
52764;SDS011;38650;44.536;18.664;2022-07-04T09:10:50;3.63;;;2.97;;
52764;SDS011;38650;44.536;18.664;2022-07-04T09:13:16;3.25;;;2.95;;
52764;SDS011;38650;44.536;18.664;2022-07-04T09:15:43;3.30;;;3.00;;
52764;SDS011;38650;44.536;18.664;2022-07-04T09:18:21;3.47;;;3.15;;
52764;SDS011;38650;44.536;18.664;2022-07-04T09:20:55;4.85;;;2.92;;
52764;SDS011;38650;44.536;18.664;2022-07-04T09:23:23;3.15;;;2.95;;
52764;SDS011;38650;44.536;18.664;2022-07-04T09:26:35;3.10;;;2.80;;
52764;SDS011;38650;44.536;18.664;2022-07-04T09:28:37;2.88;;;2.67;;
52764;SDS011;38650;44.536;18.664;2022-07-04T09:31:14;2.97;;;2.60;;
52764;SDS011;38650;44.536;18.664;2022-07-04T09:33:59;3.17;;;2.90;;
52764;SDS011;38650;44.536;18.664;2022-07-04T09:36:30;2.55;;;2.35;;
52764;SDS011;38650;44.536;18.664;2022-07-04T09:39:19;3.20;;;2.90;;
52764;SDS011;38650;44.536;18.664;2022-07-04T09:41:49;2.95;;;2.53;;
52764;SDS011;38650;44.536;18.664;2022-07-04T09:44:20;6.28;;;2.80;;
52764;SDS011;38650;44.536;18.664;2022-07-04T09:46:47;3.38;;;2.70;;
52764;SDS011;38650;44.536;18.664;2022-07-04T09:49:13;3.47;;;2.85;;
52764;SDS011;38650;44.536;18.664;2022-07-04T09:51:49;5.45;;;3.08;;
52764;SDS011;38650;44.536;18.664;2022-07-04T09:56:51;4.13;;;2.70;;
52764;SDS011;38650;44.536;18.664;2022-07-04T09:59:24;3.85;;;3.05;;
52764;SDS011;38650;44.536;18.664;2022-07-04T10:10:20;2.90;;;2.67;;
52764;SDS011;38650;44.536;18.664;2022-07-04T10:12:49;3.95;;;2.38;;
52764;SDS011;38650;44.536;18.664;2022-07-04T10:15:16;3.60;;;3.13;;
52764;SDS011;38650;44.536;18.664;2022-07-04T10:17:42;2.85;;;2.65;;
52764;SDS011;38650;44.536;18.664;2022-07-04T10:20:09;4.63;;;2.88;;
52764;SDS011;38650;44.536;18.664;2022-07-04T10:22:36;3.92;;;2.90;;
52764;SDS011;38650;44.536;18.664;2022-07-04T10:25:03;2.72;;;2.53;;
52764;SDS011;38650;44.536;18.664;2022-07-04T10:27:30;3.00;;;2.70;;
52764;SDS011;38650;44.536;18.664;2022-07-04T10:29:57;2.78;;;2.58;;
52764;SDS011;38650;44.536;18.664;2022-07-04T10:32:24;5.18;;;3.47;;
52764;SDS011;38650;44.536;18.664;2022-07-04T10:34:51;7.93;;;3.83;;
52764;SDS011;38650;44.536;18.664;2022-07-04T10:37:16;6.70;;;3.83;;
52764;SDS011;38650;44.536;18.664;2022-07-04T10:39:43;3.42;;;3.13;;
52764;SDS011;38650;44.536;18.664;2022-07-04T10:42:08;6.00;;;3.70;;
52764;SDS011;38650;44.536;18.664;2022-07-04T10:44:48;4.00;;;3.70;;
52764;SDS011;38650;44.536;18.664;2022-07-04T10:47:24;3.67;;;3.20;;
52764;SDS011;38650;44.536;18.664;2022-07-04T10:49:52;5.00;;;3.85;;
52764;SDS011;38650;44.536;18.664;2022-07-04T10:52:18;3.22;;;2.92;;
52764;SDS011;38650;44.536;18.664;2022-07-04T10:54:44;3.63;;;3.25;;
52764;SDS011;38650;44.536;18.664;2022-07-04T10:57:19;3.50;;;3.30;;
52764;SDS011;38650;44.536;18.664;2022-07-04T11:07:21;4.35;;;3.40;;
52764;SDS011;38650;44.536;18.664;2022-07-04T11:17:58;4.43;;;4.00;;
52764;SDS011;38650;44.536;18.664;2022-07-04T11:20:30;3.70;;;3.50;;
52764;SDS011;38650;44.536;18.664;2022-07-04T11:23:06;3.97;;;3.67;;
52764;SDS011;38650;44.536;18.664;2022-07-04T11:25:37;3.72;;;3.50;;
52764;SDS011;38650;44.536;18.664;2022-07-04T11:28:23;4.18;;;3.80;;
52764;SDS011;38650;44.536;18.664;2022-07-04T11:30:51;4.65;;;4.22;;
52764;SDS011;38650;44.536;18.664;2022-07-04T11:33:19;4.50;;;4.20;;
52764;SDS011;38650;44.536;18.664;2022-07-04T11:36:05;4.60;;;4.20;;
52764;SDS011;38650;44.536;18.664;2022-07-04T11:41:23;4.65;;;4.25;;
52764;SDS011;38650;44.536;18.664;2022-07-04T11:44:13;4.93;;;4.57;;
52764;SDS011;38650;44.536;18.664;2022-07-04T11:52:16;4.82;;;4.43;;
52764;SDS011;38650;44.536;18.664;2022-07-04T11:54:50;4.85;;;4.53;;
52764;SDS011;38650;44.536;18.664;2022-07-04T11:57:18;5.72;;;5.22;;
52764;SDS011;38650;44.536;18.664;2022-07-04T11:59:51;5.40;;;4.82;;
52764;SDS011;38650;44.536;18.664;2022-07-04T12:02:25;5.37;;;4.87;;
52764;SDS011;38650;44.536;18.664;2022-07-04T12:04:52;5.30;;;4.95;;
52764;SDS011;38650;44.536;18.664;2022-07-04T12:07:19;6.35;;;5.18;;
52764;SDS011;38650;44.536;18.664;2022-07-04T12:09:46;6.03;;;5.50;;
52764;SDS011;38650;44.536;18.664;2022-07-04T12:12:13;5.80;;;5.30;;
52764;SDS011;38650;44.536;18.664;2022-07-04T12:17:30;6.97;;;5.90;;
52764;SDS011;38650;44.536;18.664;2022-07-04T12:20:13;5.88;;;5.47;;
52764;SDS011;38650;44.536;18.664;2022-07-04T12:23:03;6.65;;;6.03;;
52764;SDS011;38650;44.536;18.664;2022-07-04T12:25:29;6.15;;;5.75;;
52764;SDS011;38650;44.536;18.664;2022-07-04T12:28:11;6.05;;;5.43;;
52764;SDS011;38650;44.536;18.664;2022-07-04T12:30:42;5.55;;;5.25;;
52764;SDS011;38650;44.536;18.664;2022-07-04T12:33:22;6.22;;;5.80;;
52764;SDS011;38650;44.536;18.664;2022-07-04T12:35:58;5.53;;;5.10;;
52764;SDS011;38650;44.536;18.664;2022-07-04T12:43:23;6.43;;;5.85;;
52764;SDS011;38650;44.536;18.664;2022-07-04T12:45:52;6.22;;;5.82;;
52764;SDS011;38650;44.536;18.664;2022-07-04T12:48:24;6.20;;;5.70;;
52764;SDS011;38650;44.536;18.664;2022-07-04T12:50:54;6.82;;;6.25;;
52764;SDS011;38650;44.536;18.664;2022-07-04T12:53:37;6.40;;;5.90;;
52764;SDS011;38650;44.536;18.664;2022-07-04T12:56:05;6.40;;;5.90;;
52764;SDS011;38650;44.536;18.664;2022-07-04T12:58:31;6.28;;;5.78;;
52764;SDS011;38650;44.536;18.664;2022-07-04T13:00:57;7.50;;;6.90;;
52764;SDS011;38650;44.536;18.664;2022-07-04T13:03:22;7.28;;;6.78;;
52764;SDS011;38650;44.536;18.664;2022-07-04T13:05:48;8.30;;;7.47;;
52764;SDS011;38650;44.536;18.664;2022-07-04T13:08:14;7.07;;;6.53;;
52764;SDS011;38650;44.536;18.664;2022-07-04T13:10:40;8.05;;;7.45;;
52764;SDS011;38650;44.536;18.664;2022-07-04T13:13:06;7.70;;;7.13;;
52764;SDS011;38650;44.536;18.664;2022-07-04T13:15:32;8.23;;;7.43;;
52764;SDS011;38650;44.536;18.664;2022-07-04T13:17:59;7.40;;;6.90;;
52764;SDS011;38650;44.536;18.664;2022-07-04T13:20:25;6.88;;;6.28;;
52764;SDS011;38650;44.536;18.664;2022-07-04T13:22:51;7.30;;;6.72;;
52764;SDS011;38650;44.536;18.664;2022-07-04T13:25:17;7.45;;;6.85;;
52764;SDS011;38650;44.536;18.664;2022-07-04T13:27:43;7.55;;;6.95;;
52764;SDS011;38650;44.536;18.664;2022-07-04T13:30:09;6.60;;;5.97;;
52764;SDS011;38650;44.536;18.664;2022-07-04T13:32:35;7.50;;;6.90;;
52764;SDS011;38650;44.536;18.664;2022-07-04T13:35:02;7.32;;;6.80;;
52764;SDS011;38650;44.536;18.664;2022-07-04T13:37:28;7.40;;;6.85;;
52764;SDS011;38650;44.536;18.664;2022-07-04T13:39:54;6.85;;;6.35;;
52764;SDS011;38650;44.536;18.664;2022-07-04T13:42:20;7.15;;;6.65;;
52764;SDS011;38650;44.536;18.664;2022-07-04T13:45:05;7.50;;;6.90;;
52764;SDS011;38650;44.536;18.664;2022-07-04T13:47:32;7.10;;;6.40;;
52764;SDS011;38650;44.536;18.664;2022-07-04T13:49:58;6.45;;;5.90;;
52764;SDS011;38650;44.536;18.664;2022-07-04T13:52:23;5.78;;;5.38;;
52764;SDS011;38650;44.536;18.664;2022-07-04T13:54:49;5.70;;;5.25;;
52764;SDS011;38650;44.536;18.664;2022-07-04T13:57:15;6.07;;;5.57;;
52764;SDS011;38650;44.536;18.664;2022-07-04T13:59:41;5.35;;;4.95;;
52764;SDS011;38650;44.536;18.664;2022-07-04T14:02:06;5.13;;;4.82;;
52764;SDS011;38650;44.536;18.664;2022-07-04T14:04:32;5.30;;;5.00;;
52764;SDS011;38650;44.536;18.664;2022-07-04T14:06:57;5.97;;;5.43;;
52764;SDS011;38650;44.536;18.664;2022-07-04T14:09:23;5.10;;;4.70;;
52764;SDS011;38650;44.536;18.664;2022-07-04T14:11:49;5.38;;;4.97;;
52764;SDS011;38650;44.536;18.664;2022-07-04T14:14:14;5.22;;;4.72;;
52764;SDS011;38650;44.536;18.664;2022-07-04T14:16:40;4.97;;;4.63;;
52764;SDS011;38650;44.536;18.664;2022-07-04T14:19:06;4.97;;;4.57;;
52764;SDS011;38650;44.536;18.664;2022-07-04T14:21:31;5.47;;;5.07;;
52764;SDS011;38650;44.536;18.664;2022-07-04T14:23:57;5.18;;;4.78;;
52764;SDS011;38650;44.536;18.664;2022-07-04T14:26:23;4.70;;;4.30;;
52764;SDS011;38650;44.536;18.664;2022-07-04T14:28:49;5.32;;;4.28;;
52764;SDS011;38650;44.536;18.664;2022-07-04T14:31:15;4.25;;;3.95;;
52764;SDS011;38650;44.536;18.664;2022-07-04T14:33:41;5.30;;;4.10;;
52764;SDS011;38650;44.536;18.664;2022-07-04T14:36:07;4.45;;;4.05;;
52764;SDS011;38650;44.536;18.664;2022-07-04T14:38:35;4.68;;;4.03;;
52764;SDS011;38650;44.536;18.664;2022-07-04T14:41:01;4.25;;;3.85;;
52764;SDS011;38650;44.536;18.664;2022-07-04T14:43:36;4.10;;;3.70;;
52764;SDS011;38650;44.536;18.664;2022-07-04T14:46:06;4.05;;;3.75;;
52764;SDS011;38650;44.536;18.664;2022-07-04T14:48:32;4.05;;;3.75;;
52764;SDS011;38650;44.536;18.664;2022-07-04T14:50:58;4.00;;;3.70;;
52764;SDS011;38650;44.536;18.664;2022-07-04T14:53:24;3.63;;;3.33;;
52764;SDS011;38650;44.536;18.664;2022-07-04T14:55:50;5.50;;;4.15;;
52764;SDS011;38650;44.536;18.664;2022-07-04T14:58:16;3.80;;;3.50;;
52764;SDS011;38650;44.536;18.664;2022-07-04T15:00:42;3.38;;;3.08;;
52764;SDS011;38650;44.536;18.664;2022-07-04T15:03:08;3.13;;;2.92;;
52764;SDS011;38650;44.536;18.664;2022-07-04T15:05:33;3.92;;;3.20;;
52764;SDS011;38650;44.536;18.664;2022-07-04T15:07:59;3.40;;;3.20;;
52764;SDS011;38650;44.536;18.664;2022-07-04T15:10:25;3.50;;;3.20;;
52764;SDS011;38650;44.536;18.664;2022-07-04T15:12:50;3.85;;;3.45;;
52764;SDS011;38650;44.536;18.664;2022-07-04T15:15:16;3.78;;;3.47;;
52764;SDS011;38650;44.536;18.664;2022-07-04T15:17:42;3.65;;;3.28;;